Time;durP1;ratioP1;P1;durP2;ratioP2;P2;SDS_P1;SDS_P2;PMS_P1;PMS_P2;Temp;Humidity;BMP_temperature;BMP_pressure;BME280_temperature;BME280_humidity;BME280_pressure;Samples;Min_cycle;Max_cycle;Signal;HPM_P1;HPM_P2
2024/02/08 06:33:10;;;;;;;13.47;3.67;;;4.90;99.90;;;;;;5095762;23;20199;-93
2024/02/08 06:35:25;;;;;;;12.57;5.37;;;4.90;99.90;;;;;;5046619;23;20158;-92
2024/02/08 06:37:29;;;;;;;16.60;5.70;;;4.90;99.90;;;;;;5046532;23;20170;-92
2024/02/08 06:39:44;;;;;;;18.70;6.67;;;4.90;99.90;;;;;;5071396;23;20145;-92
2024/02/08 06:42:07;;;;;;;15.43;5.40;;;4.90;99.90;;;;;;5047362;23;20193;-93
2024/02/08 06:44:42;;;;;;;17.23;5.27;;;5.10;99.90;;;;;;5045571;23;20500;-93
2024/02/08 06:48:48;;;;;;;12.93;6.17;;;5.30;99.90;;;;;;5071557;23;20165;-92
2024/02/08 07:37:29;;;;;;;18.40;5.63;;;5.00;99.90;;;;;;5069619;23;20177;-93
2024/02/08 07:39:30;;;;;;;18.93;6.27;;;5.00;99.90;;;;;;5069390;23;20160;-93
2024/02/08 07:41:33;;;;;;;15.43;4.50;;;5.10;99.90;;;;;;5069508;23;20146;-93
2024/02/08 07:43:37;;;;;;;15.57;6.30;;;5.10;99.90;;;;;;5045314;23;20590;-92
2024/02/08 07:45:48;;;;;;;14.80;5.77;;;5.20;99.90;;;;;;5044907;23;20182;-93
2024/02/08 07:47:57;;;;;;;14.40;4.37;;;5.10;99.90;;;;;;5044715;23;20549;-93
2024/02/08 07:49:58;;;;;;;16.30;5.40;;;5.10;99.90;;;;;;5044930;23;20525;-95
2024/02/08 07:51:59;;;;;;;23.13;6.30;;;5.00;99.90;;;;;;5069339;23;20185;-92
2024/02/08 07:54:10;;;;;;;19.13;5.37;;;5.10;99.90;;;;;;5044639;23;20158;-94
2024/02/08 07:58:37;;;;;;;;;;;;;;;;;;;;;
2024/02/08 08:02:52;;;;;;;14.60;5.63;;;5.20;99.90;;;;;;5069333;23;20162;-94
2024/02/08 08:04:53;;;;;;;14.80;5.47;;;5.30;99.90;;;;;;5069300;23;20161;-92
2024/02/08 08:07:00;;;;;;;16.27;5.47;;;5.20;99.90;;;;;;5044813;23;20205;-93
2024/02/08 08:09:18;;;;;;;13.83;4.93;;;5.30;99.90;;;;;;5045031;23;20162;-94
2024/02/08 08:11:19;;;;;;;17.33;5.27;;;5.30;99.90;;;;;;5044733;23;20574;-94
2024/02/08 08:13:50;;;;;;;9.63;4.13;;;5.30;99.90;;;;;;5044902;23;20161;-95
2024/02/08 08:16:35;;;;;;;10.23;4.03;;;5.20;99.90;;;;;;5068841;23;20206;-93
2024/02/08 08:18:23;;;;;;;13.17;3.77;;;5.30;99.90;;;;;;5069378;23;20178;-94
2024/02/08 08:23:00;;;;;;;14.30;4.67;;;5.20;99.90;;;;;;5050482;23;20162;-95
2024/02/08 08:27:26;;;;;;;15.13;4.47;;;5.20;99.90;;;;;;5068600;23;20204;-94
2024/02/08 08:29:27;;;;;;;14.33;4.13;;;5.10;99.90;;;;;;5069169;23;20229;-93
2024/02/08 08:36:28;;;;;;;11.30;3.90;;;5.20;99.90;;;;;;5028168;23;20162;-94
2024/02/08 08:38:29;;;;;;;9.30;4.10;;;5.20;99.90;;;;;;5045197;23;20278;-93
2024/02/08 08:40:38;;;;;;;11.60;4.10;;;5.10;99.90;;;;;;5045093;23;20236;-93
2024/02/08 08:42:42;;;;;;;9.27;3.60;;;5.10;99.90;;;;;;5044987;23;20482;-94
2024/02/08 08:44:51;;;;;;;5.80;2.80;;;5.10;99.90;;;;;;5045006;23;20158;-95
2024/02/08 08:46:52;;;;;;;7.90;3.57;;;5.10;99.90;;;;;;5044799;23;20695;-96
2024/02/08 08:48:54;;;;;;;10.20;3.50;;;5.00;99.90;;;;;;5045175;23;20158;-96
2024/02/08 08:50:56;;;;;;;10.97;3.17;;;5.00;99.90;;;;;;5069158;23;20508;-96
2024/02/08 08:53:07;;;;;;;13.67;3.87;;;5.00;99.90;;;;;;5045229;23;20155;-94
2024/02/08 08:55:11;;;;;;;8.57;2.83;;;5.00;99.90;;;;;;5045096;23;20169;-96
2024/02/08 08:57:12;;;;;;;4.80;2.57;;;5.00;99.90;;;;;;5045241;23;20176;-95
2024/02/08 08:59:18;;;;;;;10.87;3.77;;;5.00;99.90;;;;;;5044642;23;20162;-95
2024/02/08 09:01:21;;;;;;;8.20;3.90;;;5.00;99.90;;;;;;5044989;23;20158;-95
2024/02/08 09:03:28;;;;;;;4.10;1.80;;;5.00;99.90;;;;;;5044857;23;20245;-95
2024/02/08 09:05:36;;;;;;;4.53;2.40;;;5.00;99.90;;;;;;5044758;23;20590;-95
2024/02/08 09:07:37;;;;;;;9.73;2.90;;;5.00;99.90;;;;;;5044683;23;20198;-95
2024/02/08 09:09:54;;;;;;;5.53;2.60;;;5.10;99.90;;;;;;5069023;23;20157;-94
2024/02/08 09:11:58;;;;;;;5.80;2.60;;;5.10;99.90;;;;;;5045093;23;20494;-94
2024/02/08 09:14:09;;;;;;;5.73;2.73;;;5.10;99.90;;;;;;5046314;23;20158;-93
2024/02/08 09:20:44;;;;;;;5.47;2.33;;;5.40;99.90;;;;;;5070389;23;20157;-93
2024/02/08 09:22:45;;;;;;;5.07;1.73;;;5.50;99.90;;;;;;5046055;23;20501;-95
2024/02/08 09:24:48;;;;;;;5.10;2.30;;;5.50;99.90;;;;;;5046291;23;20162;-93
2024/02/08 09:27:38;;;;;;;6.97;2.70;;;5.40;99.90;;;;;;5070054;23;20252;-93
2024/02/08 09:29:13;;;;;;;6.27;2.20;;;5.40;99.90;;;;;;5054660;23;20612;-92
2024/02/08 09:31:16;;;;;;;4.37;1.67;;;5.40;99.90;;;;;;5070210;23;20156;-95
2024/02/08 09:33:30;;;;;;;4.70;2.70;;;5.50;99.90;;;;;;5045908;23;20222;-93
2024/02/08 09:35:31;;;;;;;3.93;1.73;;;5.50;99.90;;;;;;5045672;23;20677;-93
2024/02/08 09:37:33;;;;;;;6.73;2.33;;;5.50;99.90;;;;;;5045988;23;20174;-93
2024/02/08 09:41:54;;;;;;;3.80;2.00;;;5.50;99.90;;;;;;5070362;23;20161;-93
2024/02/08 09:44:05;;;;;;;6.43;1.60;;;5.50;99.90;;;;;;5070028;23;20277;-93
2024/02/08 09:46:10;;;;;;;7.70;2.70;;;5.60;99.90;;;;;;5045977;23;20151;-94
2024/02/08 09:48:25;;;;;;;5.57;1.93;;;5.50;99.90;;;;;;5045729;23;20194;-95
2024/02/08 09:50:37;;;;;;;8.43;2.20;;;5.60;99.90;;;;;;5043464;23;20154;-93
2024/02/08 09:52:45;;;;;;;3.80;1.77;;;5.70;99.90;;;;;;5045969;23;20190;-94
2024/02/08 09:54:54;;;;;;;2.10;1.17;;;5.80;99.90;;;;;;5047309;23;20178;-94
2024/02/08 10:00:07;;;;;;;7.30;1.50;;;5.90;99.90;;;;;;5043408;23;20153;-94
2024/02/08 10:02:29;;;;;;;2.37;1.43;;;5.80;99.90;;;;;;5070988;23;20645;-94
2024/02/08 10:04:56;;;;;;;7.47;1.50;;;5.90;99.90;;;;;;5071761;23;20196;-93
2024/02/08 10:07:15;;;;;;;1.57;0.90;;;5.90;99.90;;;;;;5045905;23;20223;-95
2024/02/08 10:09:36;;;;;;;3.15;1.40;;;5.80;99.90;;;;;;5046514;23;20157;-96
2024/02/08 10:11:38;;;;;;;2.10;1.07;;;5.90;99.90;;;;;;5046358;23;20490;-96
2024/02/08 10:13:55;;;;;;;2.63;0.80;;;6.00;99.90;;;;;;5046239;23;20618;-95
2024/02/08 10:16:03;;;;;;;2.27;1.00;;;6.10;99.90;;;;;;5045999;23;20192;-95
2024/02/08 10:18:13;;;;;;;3.38;1.40;;;6.10;99.90;;;;;;5070907;23;20180;-95
2024/02/08 10:20:47;;;;;;;1.88;0.95;;;6.00;99.90;;;;;;5057395;23;20150;-95
2024/02/08 10:23:35;;;;;;;1.90;0.87;;;5.90;99.90;;;;;;5091865;23;20176;-95
2024/02/08 10:26:19;;;;;;;5.75;0.93;;;5.90;99.90;;;;;;5082814;23;20204;-92
2024/02/08 10:28:31;;;;;;;3.15;1.20;;;6.10;99.90;;;;;;5059142;23;20202;-95
2024/02/08 10:31:28;;;;;;;2.13;0.90;;;6.30;99.90;;;;;;5081508;23;20161;-93
2024/02/08 10:33:35;;;;;;;2.00;1.10;;;6.30;99.90;;;;;;5067375;23;20161;-96
2024/02/08 10:35:41;;;;;;;2.75;1.00;;;6.10;99.90;;;;;;5072611;23;20149;-96
2024/02/08 10:38:14;;;;;;;3.47;2.03;;;6.10;99.90;;;;;;5057318;23;20186;-95
2024/02/08 10:40:32;;;;;;;2.03;1.00;;;6.30;99.90;;;;;;5052141;23;20538;-96
2024/02/08 10:42:38;;;;;;;2.97;1.30;;;6.20;99.90;;;;;;5079565;23;20600;-95
2024/02/08 10:45:23;;;;;;;3.03;1.23;;;6.10;99.90;;;;;;5108141;23;20149;-96
2024/02/08 10:47:39;;;;;;;2.05;1.10;;;6.20;99.90;;;;;;5080217;23;20672;-96
2024/02/08 10:49:44;;;;;;;2.37;1.00;;;6.30;99.90;;;;;;5081128;23;20165;-96
2024/02/08 10:52:07;;;;;;;2.70;1.40;;;6.30;99.90;;;;;;5059060;23;20154;-96
2024/02/08 10:54:42;;;;;;;3.77;1.10;;;6.40;99.90;;;;;;5061016;23;20178;-96
2024/02/08 10:57:06;;;;;;;3.30;1.30;;;6.30;99.90;;;;;;5061134;23;20142;-96
2024/02/08 10:59:20;;;;;;;1.42;0.90;;;6.30;99.90;;;;;;5048566;23;20163;-95
2024/02/08 11:01:37;;;;;;;2.55;1.33;;;6.40;99.90;;;;;;5082635;23;20517;-93
2024/02/08 11:03:52;;;;;;;2.13;0.90;;;6.50;99.90;;;;;;5084149;23;20201;-95
2024/02/08 11:07:37;;;;;;;2.90;1.20;;;6.50;99.90;;;;;;5085125;23;20162;-95
2024/02/08 11:09:35;;;;;;;4.80;1.27;;;6.60;99.90;;;;;;5068377;23;20217;-95
2024/02/08 11:11:59;;;;;;;2.88;1.10;;;6.70;99.90;;;;;;5105302;23;20169;-94
2024/02/08 11:14:19;;;;;;;2.50;1.15;;;6.80;99.90;;;;;;5109941;23;20148;-95
2024/02/08 11:16:50;;;;;;;2.40;1.20;;;6.90;99.90;;;;;;5084338;23;20140;-96
2024/02/08 11:19:04;;;;;;;2.60;0.88;;;7.00;99.90;;;;;;5083718;23;20635;-96
2024/02/08 11:21:12;;;;;;;2.22;0.98;;;7.10;99.90;;;;;;5052202;23;20180;-96
2024/02/08 11:23:31;;;;;;;3.55;0.90;;;7.10;99.90;;;;;;5052727;23;20154;-93
2024/02/08 11:25:38;;;;;;;4.53;1.52;;;7.10;99.90;;;;;;5050399;23;20154;-96
2024/02/08 11:27:48;;;;;;;2.65;0.93;;;7.20;99.90;;;;;;5034947;23;20205;-96
2024/02/08 11:29:53;;;;;;;2.17;1.27;;;7.20;99.90;;;;;;5054603;23;20198;-96
2024/02/08 11:32:24;;;;;;;4.05;1.10;;;7.10;99.90;;;;;;5073769;23;20176;-93
2024/02/08 11:34:45;;;;;;;1.98;1.17;;;7.10;99.90;;;;;;5080091;23;20189;-94
2024/02/08 11:36:52;;;;;;;1.85;1.08;;;7.20;99.90;;;;;;5083927;23;20149;-96
2024/02/08 11:39:21;;;;;;;2.30;1.17;;;7.20;99.90;;;;;;5078206;23;20157;-94
2024/02/08 11:41:43;;;;;;;2.17;1.10;;;7.40;99.90;;;;;;5078055;23;20150;-95
2024/02/08 11:44:05;;;;;;;3.75;1.27;;;7.40;99.90;;;;;;5079742;23;20207;-96
2024/02/08 11:46:23;;;;;;;2.30;1.13;;;7.40;99.90;;;;;;5074364;23;20240;-96
2024/02/08 11:48:41;;;;;;;3.17;1.10;;;7.30;99.90;;;;;;5077609;23;20185;-95
2024/02/08 11:50:47;;;;;;;2.45;1.10;;;7.40;99.90;;;;;;5051478;23;20168;-95
2024/02/08 11:53:17;;;;;;;3.35;1.73;;;7.40;99.90;;;;;;5077496;23;20176;-95
2024/02/08 11:55:23;;;;;;;9.95;1.67;;;7.60;99.90;;;;;;5072062;23;20154;-96
2024/02/08 11:57:42;;;;;;;1.92;1.10;;;7.60;99.90;;;;;;5048554;23;20206;-95
2024/02/08 11:59:46;;;;;;;2.95;1.40;;;7.50;99.90;;;;;;5070986;23;20157;-95
2024/02/08 12:01:53;;;;;;;2.47;1.23;;;7.50;99.90;;;;;;5069693;23;20157;-94
2024/02/08 12:04:02;;;;;;;2.78;1.50;;;7.60;99.90;;;;;;5045784;23;20147;-95
2024/02/08 12:06:21;;;;;;;2.53;1.33;;;7.70;99.90;;;;;;5070562;23;20160;-95
2024/02/08 12:08:23;;;;;;;2.08;1.08;;;7.80;99.90;;;;;;5070159;23;20226;-96
2024/02/08 12:10:27;;;;;;;4.18;1.95;;;7.80;99.90;;;;;;5046098;23;20159;-95
2024/02/08 12:12:30;;;;;;;2.72;1.45;;;7.90;99.90;;;;;;5045736;23;20214;-95
2024/02/08 12:14:31;;;;;;;2.90;1.48;;;8.20;99.90;;;;;;5069218;23;20242;-95
2024/02/08 12:16:46;;;;;;;2.00;1.20;;;8.20;99.90;;;;;;5048490;23;20245;-95
2024/02/08 12:18:55;;;;;;;3.75;1.85;;;8.50;99.90;;;;;;5058182;23;20141;-95
2024/02/08 12:21:01;;;;;;;2.22;1.08;;;8.80;99.90;;;;;;5067019;23;20162;-94
2024/02/08 12:23:02;;;;;;;6.93;2.30;;;9.50;99.90;;;;;;5045452;23;20160;-94
2024/02/08 12:25:07;;;;;;;7.30;1.83;;;9.60;99.90;;;;;;5045288;23;20234;-96
2024/02/08 12:27:12;;;;;;;4.25;1.65;;;9.60;99.90;;;;;;5045232;23;20253;-96
2024/02/08 12:29:17;;;;;;;5.38;1.65;;;9.60;99.90;;;;;;5045719;23;20165;-95
2024/02/08 12:31:18;;;;;;;5.28;1.02;;;9.60;99.90;;;;;;5045909;23;20162;-95
2024/02/08 12:33:21;;;;;;;3.00;1.35;;;9.70;99.90;;;;;;5045506;23;20162;-96
2024/02/08 12:35:33;;;;;;;3.28;1.58;;;9.80;99.90;;;;;;5046057;23;20605;-95
2024/02/08 12:37:37;;;;;;;3.83;1.35;;;9.90;99.90;;;;;;5069809;23;20168;-95
2024/02/08 12:39:49;;;;;;;4.65;1.60;;;10.00;99.90;;;;;;5045183;23;20158;-95
2024/02/08 12:41:52;;;;;;;4.75;1.60;;;10.20;99.90;;;;;;5069532;23;20158;-95
2024/02/08 12:43:54;;;;;;;10.95;1.50;;;10.40;99.90;;;;;;5069253;23;20153;-95
2024/02/08 12:45:56;;;;;;;5.72;2.20;;;10.30;99.90;;;;;;5068887;23;20158;-95
2024/02/08 12:48:04;;;;;;;8.63;2.22;;;10.40;99.90;;;;;;5046034;23;20197;-95
2024/02/08 12:50:08;;;;;;;5.00;1.52;;;10.40;99.90;;;;;;5046821;23;20560;-93
2024/02/08 12:52:11;;;;;;;7.97;1.67;;;10.40;99.90;;;;;;5070494;23;20153;-93
2024/02/08 12:54:15;;;;;;;7.25;1.00;;;10.50;99.90;;;;;;5046124;23;20150;-94
2024/02/08 12:56:20;;;;;;;6.82;1.05;;;10.60;99.90;;;;;;5070548;23;20600;-93
2024/02/08 12:58:23;;;;;;;4.05;0.98;;;10.80;99.90;;;;;;5070682;23;20176;-96
2024/02/08 13:00:25;;;;;;;4.35;0.85;;;10.90;99.90;;;;;;5046610;23;20182;-93
2024/02/08 13:02:32;;;;;;;2.55;1.45;;;11.10;99.90;;;;;;5070235;23;20541;-95
2024/02/08 13:04:33;;;;;;;4.13;0.82;;;11.20;99.90;;;;;;5046087;23;20596;-94
2024/02/08 13:06:35;;;;;;;3.17;0.60;;;11.30;99.90;;;;;;5070726;23;20245;-94
2024/02/08 13:08:35;;;;;;;6.85;0.85;;;11.30;99.90;;;;;;5046752;23;20648;-95
2024/02/08 13:10:36;;;;;;;5.72;0.88;;;11.30;99.90;;;;;;5070308;23;20244;-94
2024/02/08 13:12:37;;;;;;;5.18;1.42;;;11.30;99.90;;;;;;5045915;23;20223;-94
2024/02/08 13:14:39;;;;;;;5.35;1.42;;;11.30;99.90;;;;;;5071076;23;20158;-94
2024/02/08 13:16:40;;;;;;;1.70;0.90;;;11.40;99.90;;;;;;5046330;23;20183;-93
2024/02/08 13:18:43;;;;;;;2.88;0.70;;;11.40;99.90;;;;;;5070583;23;20161;-93
2024/02/08 13:20:44;;;;;;;0.43;0.30;;;11.40;99.90;;;;;;5070591;23;20154;-94
2024/02/08 13:22:45;;;;;;;5.35;0.55;;;11.40;99.90;;;;;;5046136;23;20161;-93
2024/02/08 13:24:48;;;;;;;1.90;0.40;;;11.40;99.90;;;;;;5046186;23;20198;-94
2024/02/08 13:26:50;;;;;;;2.05;0.28;;;11.40;99.90;;;;;;5045636;23;20253;-93
2024/02/08 13:28:51;;;;;;;7.22;0.47;;;11.40;99.90;;;;;;5046420;23;20594;-92
2024/02/08 13:30:53;;;;;;;5.00;0.85;;;11.40;99.90;;;;;;5046322;23;20206;-92
2024/02/08 13:32:55;;;;;;;1.67;0.70;;;11.50;99.90;;;;;;5045992;23;20180;-92
2024/02/08 13:34:57;;;;;;;11.32;0.70;;;11.40;99.90;;;;;;5046072;23;20150;-92
2024/02/08 13:36:58;;;;;;;1.83;0.60;;;11.50;99.90;;;;;;5045624;23;20166;-93
2024/02/08 13:39:00;;;;;;;4.57;1.00;;;11.50;99.90;;;;;;5045942;23;20166;-93
2024/02/08 13:41:04;;;;;;;4.80;1.27;;;11.50;99.90;;;;;;5045772;23;20162;-93
2024/02/08 13:43:05;;;;;;;6.65;1.13;;;11.50;99.90;;;;;;5070568;23;20212;-92
2024/02/08 13:45:07;;;;;;;4.13;0.82;;;11.60;99.90;;;;;;5046132;23;20210;-93
2024/02/08 13:47:09;;;;;;;8.10;2.45;;;11.60;99.90;;;;;;5045873;23;20198;-91
2024/02/08 13:49:10;;;;;;;4.63;1.10;;;11.70;99.90;;;;;;5070181;23;20193;-93
2024/02/08 13:51:11;;;;;;;3.78;1.33;;;11.70;99.90;;;;;;5045765;23;20166;-93
2024/02/08 13:53:15;;;;;;;2.75;1.40;;;11.70;99.90;;;;;;5045466;23;20222;-92
2024/02/08 13:55:19;;;;;;;1.80;1.00;;;11.80;99.90;;;;;;5045816;23;20164;-94
2024/02/08 13:57:21;;;;;;;3.22;1.45;;;11.80;99.90;;;;;;5045705;23;20242;-93
2024/02/08 13:59:22;;;;;;;1.42;0.90;;;11.80;99.90;;;;;;5045185;23;20154;-93
2024/02/08 14:01:25;;;;;;;5.68;1.13;;;11.90;99.90;;;;;;5046110;23;20242;-93
2024/02/08 14:03:29;;;;;;;6.43;1.70;;;11.90;99.90;;;;;;5045437;23;20210;-94
2024/02/08 14:05:38;;;;;;;11.70;1.45;;;11.90;99.90;;;;;;5045915;23;20154;-93
2024/02/08 14:07:42;;;;;;;1.35;0.75;;;12.00;99.90;;;;;;5045911;23;20194;-93
2024/02/08 14:09:45;;;;;;;7.70;1.05;;;12.00;99.90;;;;;;5045622;23;20158;-93
2024/02/08 14:11:52;;;;;;;6.85;1.25;;;12.00;99.90;;;;;;5045706;23;20182;-93
2024/02/08 14:13:53;;;;;;;11.68;2.15;;;12.00;99.90;;;;;;5045415;23;20150;-93
2024/02/08 14:16:00;;;;;;;3.95;1.02;;;12.00;99.90;;;;;;5045632;23;20166;-92
2024/02/08 14:18:22;;;;;;;3.72;1.23;;;12.00;99.90;;;;;;5045578;23;20507;-94
2024/02/08 14:20:43;;;;;;;1.45;0.93;;;12.00;99.90;;;;;;5045760;23;20159;-93
2024/02/08 14:22:46;;;;;;;6.05;1.90;;;12.00;99.90;;;;;;5045737;23;20162;-93
2024/02/08 14:24:50;;;;;;;5.88;1.35;;;12.10;99.90;;;;;;5045968;23;20202;-93
2024/02/08 14:26:52;;;;;;;6.35;1.77;;;12.10;99.90;;;;;;5046163;23;20146;-93
2024/02/08 14:28:55;;;;;;;4.47;2.03;;;12.10;99.90;;;;;;5046041;23;20227;-93
2024/02/08 14:30:59;;;;;;;13.10;2.10;;;12.00;99.90;;;;;;5045521;23;20158;-93
2024/02/08 14:33:01;;;;;;;12.15;2.08;;;12.00;99.90;;;;;;5045126;23;20205;-92
2024/02/08 14:35:02;;;;;;;3.28;1.30;;;12.00;99.90;;;;;;5045560;23;20150;-93
2024/02/08 14:37:07;;;;;;;2.70;1.00;;;12.00;99.90;;;;;;5045631;23;20235;-92
2024/02/08 14:39:26;;;;;;;3.80;1.55;;;12.00;99.90;;;;;;5071725;23;20517;-94
2024/02/08 14:41:33;;;;;;;7.30;0.95;;;12.10;99.90;;;;;;5050095;23;20158;-92
2024/02/08 14:43:34;;;;;;;20.50;3.05;;;12.00;99.90;;;;;;5066102;23;20486;-92
2024/02/08 14:45:35;;;;;;;4.47;0.70;;;12.00;99.90;;;;;;5055637;23;20261;-94
2024/02/08 14:47:37;;;;;;;23.48;1.38;;;12.00;99.90;;;;;;5045547;23;20672;-93
2024/02/08 14:49:58;;;;;;;2.88;1.25;;;12.00;99.90;;;;;;5069910;23;20150;-93
2024/02/08 14:52:14;;;;;;;3.38;1.10;;;11.90;99.90;;;;;;5046000;23;20566;-94
2024/02/08 14:54:18;;;;;;;6.97;1.95;;;11.90;99.90;;;;;;5045629;23;20164;-93
2024/02/08 14:56:20;;;;;;;2.33;0.98;;;11.80;99.90;;;;;;5045433;23;20628;-93
2024/02/08 14:58:35;;;;;;;7.00;1.58;;;11.90;99.90;;;;;;5045374;23;20174;-92
2024/02/08 15:02:43;;;;;;;1.63;1.08;;;11.90;99.90;;;;;;5069752;23;20245;-93
2024/02/08 15:04:59;;;;;;;7.55;2.17;;;11.90;99.90;;;;;;5045690;23;20217;-93
2024/02/08 15:13:49;;;;;;;3.88;1.67;;;12.00;99.90;;;;;;5069742;23;20217;-93
2024/02/08 15:15:54;;;;;;;3.20;1.52;;;12.00;99.90;;;;;;5069584;23;20272;-94
2024/02/08 15:18:10;;;;;;;1.90;0.73;;;12.00;99.90;;;;;;5069504;23;20177;-93
2024/02/08 15:24:32;;;;;;;6.40;2.25;;;11.90;99.90;;;;;;5069104;23;20168;-94
2024/02/08 15:26:37;;;;;;;6.32;1.17;;;12.00;99.90;;;;;;5045063;23;20164;-94
2024/02/08 15:28:41;;;;;;;5.35;1.83;;;11.90;99.90;;;;;;5069330;23;20193;-93
2024/02/08 15:30:50;;;;;;;3.92;1.10;;;11.90;99.90;;;;;;5045019;23;20180;-95
2024/02/08 15:34:58;;;;;;;7.35;1.88;;;12.00;99.90;;;;;;5069340;23;20145;-93
2024/02/08 15:37:20;;;;;;;2.97;0.98;;;12.00;99.90;;;;;;5069212;23;20178;-93
2024/02/08 15:39:55;;;;;;;7.28;1.00;;;12.00;99.90;;;;;;5044968;23;20305;-94
2024/02/08 15:41:51;;;;;;;9.52;2.38;;;11.90;99.90;;;;;;5069518;23;20176;-96
2024/02/08 15:43:52;;;;;;;4.85;2.13;;;12.00;99.90;;;;;;5045175;23;20161;-93
2024/02/08 15:45:54;;;;;;;6.82;1.55;;;12.00;99.90;;;;;;5069288;23;20164;-95
2024/02/08 15:47:55;;;;;;;2.72;1.05;;;12.00;99.90;;;;;;5044762;23;20198;-92
2024/02/08 15:49:57;;;;;;;14.70;1.52;;;12.00;99.90;;;;;;5045216;23;20203;-93
2024/02/08 15:51:58;;;;;;;4.40;1.00;;;12.00;99.90;;;;;;5045167;23;20158;-94
2024/02/08 15:53:59;;;;;;;12.60;2.05;;;11.90;99.90;;;;;;5045611;23;20150;-93
2024/02/08 15:56:00;;;;;;;7.85;1.50;;;11.90;99.90;;;;;;5044799;23;20158;-95
2024/02/08 15:58:17;;;;;;;5.10;1.13;;;11.90;99.90;;;;;;5045158;23;20181;-94
2024/02/08 16:02:37;;;;;;;13.75;2.80;;;11.90;99.90;;;;;;5069237;23;20149;-95
2024/02/08 16:06:53;;;;;;;7.25;1.65;;;11.90;99.90;;;;;;5069443;23;20153;-94
2024/02/08 16:08:57;;;;;;;6.55;1.10;;;11.90;99.90;;;;;;5044820;23;20185;-95
2024/02/08 16:11:18;;;;;;;5.97;1.98;;;11.90;99.90;;;;;;5069587;23;20158;-94
2024/02/08 16:13:26;;;;;;;4.40;1.55;;;11.90;99.90;;;;;;5069808;23;20208;-94
2024/02/08 16:15:28;;;;;;;6.03;1.60;;;11.90;99.90;;;;;;5045341;23;20181;-93
2024/02/08 16:19:51;;;;;;;3.15;1.13;;;11.90;99.90;;;;;;5069500;23;20176;-93
2024/02/08 16:22:14;;;;;;;5.75;1.67;;;11.90;99.90;;;;;;5045404;23;20190;-93
2024/02/08 16:24:18;;;;;;;8.60;3.08;;;11.90;99.90;;;;;;5071146;23;20241;-95
2024/02/08 16:26:19;;;;;;;4.32;1.40;;;11.90;99.90;;;;;;5070525;23;20157;-94
2024/02/08 16:28:20;;;;;;;3.95;1.60;;;11.90;99.90;;;;;;5045060;23;20645;-96
2024/02/08 16:30:33;;;;;;;6.05;1.67;;;11.80;99.90;;;;;;5045466;23;20155;-95
2024/02/08 16:32:38;;;;;;;14.18;2.28;;;11.70;99.90;;;;;;5045411;23;20181;-95
2024/02/08 16:34:50;;;;;;;4.75;1.33;;;11.70;99.90;;;;;;5069267;23;20240;-95
2024/02/08 16:37:03;;;;;;;6.63;2.33;;;11.70;99.90;;;;;;5069208;23;20605;-95
2024/02/08 16:39:33;;;;;;;7.00;2.58;;;11.70;99.90;;;;;;5045356;23;20228;-94
2024/02/08 16:41:32;;;;;;;7.85;1.35;;;11.70;99.90;;;;;;5068673;23;20625;-94
2024/02/08 16:43:43;;;;;;;8.88;1.73;;;11.60;99.90;;;;;;5045232;23;20154;-95
2024/02/08 16:46:35;;;;;;;4.80;1.30;;;11.60;99.90;;;;;;5045425;23;20485;-95
2024/02/08 16:48:14;;;;;;;6.18;1.63;;;11.60;99.90;;;;;;5082864;23;20204;-94
2024/02/08 16:50:22;;;;;;;4.82;2.08;;;11.60;99.90;;;;;;5045685;23;20158;-94
2024/02/08 16:52:28;;;;;;;7.18;1.35;;;11.50;99.90;;;;;;5045283;23;20218;-94
2024/02/08 16:54:33;;;;;;;7.57;1.52;;;11.50;99.90;;;;;;5045290;23;20158;-94
2024/02/08 16:56:39;;;;;;;7.22;2.13;;;11.50;99.90;;;;;;5044860;23;20158;-94
2024/02/08 16:58:50;;;;;;;7.20;1.58;;;11.50;99.90;;;;;;5045185;23;20155;-94
2024/02/08 17:00:54;;;;;;;11.43;2.08;;;11.60;99.90;;;;;;5044760;23;20161;-92
2024/02/08 17:03:05;;;;;;;9.55;1.65;;;11.60;99.90;;;;;;5044981;23;20153;-94
2024/02/08 17:05:09;;;;;;;8.93;2.97;;;11.70;99.90;;;;;;5046796;23;20157;-93
2024/02/08 17:07:11;;;;;;;27.58;3.08;;;11.60;99.90;;;;;;5075943;23;20193;-94
2024/02/08 17:11:15;;;;;;;2.28;1.17;;;11.70;99.90;;;;;;5084900;23;20167;-94
2024/02/08 17:13:16;;;;;;;11.13;2.20;;;11.70;99.90;;;;;;5046479;23;20582;-95
2024/02/08 17:15:48;;;;;;;7.20;1.40;;;11.70;99.90;;;;;;5046306;23;20217;-94
2024/02/08 17:17:49;;;;;;;5.15;2.05;;;11.60;99.90;;;;;;5047336;23;20696;-93
2024/02/08 17:19:57;;;;;;;14.20;2.60;;;11.60;99.90;;;;;;5069820;23;20209;-94
2024/02/08 17:22:28;;;;;;;7.15;1.65;;;11.60;99.90;;;;;;5071085;23;20156;-93
2024/02/08 17:24:42;;;;;;;10.27;2.03;;;11.60;99.90;;;;;;5046928;23;20162;-94
2024/02/08 17:26:59;;;;;;;6.65;1.02;;;11.60;99.90;;;;;;5045458;23;20173;-94
2024/02/08 17:29:19;;;;;;;9.65;2.10;;;11.60;99.90;;;;;;5047792;23;20173;-92
2024/02/08 17:31:28;;;;;;;7.35;2.33;;;11.50;99.90;;;;;;5044900;23;20233;-94
2024/02/08 17:33:30;;;;;;;11.82;3.03;;;11.60;99.90;;;;;;5046383;23;20225;-93
2024/02/08 17:35:34;;;;;;;7.18;2.25;;;11.50;99.90;;;;;;5046775;23;20154;-94
2024/02/08 17:37:44;;;;;;;11.75;2.47;;;11.60;99.90;;;;;;5046963;23;20641;-93
2024/02/08 17:39:48;;;;;;;10.90;2.03;;;11.50;99.90;;;;;;5048267;23;20177;-93
2024/02/08 17:41:49;;;;;;;7.43;2.28;;;11.60;99.90;;;;;;5050293;23;20154;-95
2024/02/08 17:43:54;;;;;;;7.18;1.90;;;11.50;99.90;;;;;;5046160;23;20154;-94
2024/02/08 17:45:55;;;;;;;4.95;2.08;;;11.50;99.90;;;;;;5046101;23;20162;-94
2024/02/08 17:47:59;;;;;;;8.57;2.03;;;11.40;99.90;;;;;;5046626;23;20249;-93
2024/02/08 17:50:04;;;;;;;6.72;2.10;;;11.40;99.90;;;;;;5070333;23;20585;-93
2024/02/08 17:52:06;;;;;;;3.40;1.52;;;11.40;99.90;;;;;;5046261;23;20157;-93
2024/02/08 17:54:07;;;;;;;3.20;1.45;;;11.40;99.90;;;;;;5047176;23;20166;-95
2024/02/08 17:56:14;;;;;;;6.50;2.50;;;11.40;99.90;;;;;;5046745;23;20198;-93
2024/02/08 17:58:17;;;;;;;10.50;2.78;;;11.40;99.90;;;;;;5046963;23;20189;-93
2024/02/08 18:00:21;;;;;;;16.63;1.50;;;11.30;99.90;;;;;;5070411;23;20154;-94
2024/02/08 18:02:22;;;;;;;7.90;2.28;;;11.30;99.90;;;;;;5046758;23;20598;-95
2024/02/08 18:04:24;;;;;;;11.45;1.40;;;11.40;99.90;;;;;;5070092;23;20158;-93
2024/02/08 18:06:32;;;;;;;4.65;2.33;;;11.40;99.90;;;;;;5070232;23;20616;-94
2024/02/08 18:08:38;;;;;;;12.93;1.95;;;11.40;99.90;;;;;;5045777;23;20546;-93
2024/02/08 18:10:43;;;;;;;8.07;1.55;;;11.40;99.90;;;;;;5095733;23;20196;-93
2024/02/08 18:12:51;;;;;;;20.27;2.58;;;11.40;99.90;;;;;;5070478;23;20161;-94
2024/02/08 18:15:00;;;;;;;7.88;2.70;;;11.40;99.90;;;;;;5046545;23;20149;-94
2024/02/08 18:17:03;;;;;;;7.93;2.33;;;11.40;99.90;;;;;;5047153;23;20166;-93
2024/02/08 18:19:05;;;;;;;6.60;1.27;;;11.40;99.90;;;;;;5071003;23;20180;-93
2024/02/08 18:21:13;;;;;;;4.72;1.92;;;11.40;99.90;;;;;;5046736;23;20151;-93
2024/02/08 18:23:18;;;;;;;2.78;1.25;;;11.40;99.90;;;;;;5045627;23;20165;-93
2024/02/08 18:25:28;;;;;;;3.15;1.42;;;11.40;99.90;;;;;;5045799;23;20643;-93
2024/02/08 18:27:31;;;;;;;10.15;1.95;;;11.40;99.90;;;;;;5046494;23;20246;-92
2024/02/08 18:29:35;;;;;;;11.15;2.63;;;11.40;99.90;;;;;;5046764;23;20182;-94
2024/02/08 18:31:37;;;;;;;9.30;1.75;;;11.40;99.90;;;;;;5045631;23;20166;-93
2024/02/08 18:33:37;;;;;;;5.95;1.80;;;11.40;99.90;;;;;;5045246;23;20672;-93
2024/02/08 18:35:38;;;;;;;9.68;2.03;;;11.40;99.90;;;;;;5045935;23;20178;-95
2024/02/08 18:37:41;;;;;;;6.22;2.13;;;11.40;99.90;;;;;;5045541;23;20171;-93
2024/02/08 18:39:43;;;;;;;5.97;2.35;;;11.40;99.90;;;;;;5045792;23;20155;-95
2024/02/08 18:41:50;;;;;;;3.45;1.70;;;11.40;99.90;;;;;;5045630;23;20221;-92
2024/02/08 18:43:57;;;;;;;7.85;2.53;;;11.40;99.90;;;;;;5045228;23;20161;-93
2024/02/08 18:45:59;;;;;;;13.68;1.80;;;11.40;99.90;;;;;;5069201;23;20154;-93
2024/02/08 18:48:04;;;;;;;16.58;2.35;;;11.30;99.90;;;;;;5044969;23;20245;-93
2024/02/08 18:50:08;;;;;;;3.45;0.82;;;11.30;99.90;;;;;;5045280;23;20150;-94
2024/02/08 18:52:15;;;;;;;6.05;1.83;;;11.30;99.90;;;;;;5096314;23;20167;-94
2024/02/08 18:54:28;;;;;;;20.63;2.95;;;11.30;99.90;;;;;;5069777;23;20154;-92
2024/02/08 18:56:31;;;;;;;13.73;2.97;;;11.20;99.90;;;;;;5045598;23;20162;-93
2024/02/08 18:58:33;;;;;;;7.90;1.70;;;11.20;99.90;;;;;;5045181;23;20213;-93
2024/02/08 19:00:34;;;;;;;4.05;1.83;;;11.30;99.90;;;;;;5045358;23;20205;-93
2024/02/08 19:02:35;;;;;;;7.97;1.90;;;11.30;99.90;;;;;;5045396;23;20157;-94
2024/02/08 19:04:36;;;;;;;4.82;1.38;;;11.30;99.90;;;;;;5069453;23;20489;-93
2024/02/08 19:06:39;;;;;;;7.97;2.00;;;11.30;99.90;;;;;;5045523;23;20188;-93
2024/02/08 19:08:41;;;;;;;17.98;3.28;;;11.20;99.90;;;;;;5071141;23;20536;-94
2024/02/08 19:10:57;;;;;;;13.68;1.85;;;11.20;99.90;;;;;;5070135;23;20608;-92
2024/02/08 19:13:02;;;;;;;7.97;2.97;;;11.20;99.90;;;;;;5069557;23;20158;-93
2024/02/08 19:15:06;;;;;;;8.23;2.63;;;11.20;99.90;;;;;;5045843;23;20155;-94
2024/02/08 19:17:07;;;;;;;10.65;2.35;;;11.20;99.90;;;;;;5045157;23;20173;-93
2024/02/08 19:19:10;;;;;;;11.23;3.00;;;11.10;99.90;;;;;;5046429;23;20219;-93
2024/02/08 19:21:22;;;;;;;4.90;1.55;;;11.10;99.90;;;;;;5045380;23;20158;-93